createdAt,value
2018-04-14T00:00:52.136Z,2.70
2018-04-14T00:03:19.693Z,3.33
2018-04-14T00:05:47.219Z,2.97
2018-04-14T00:08:14.688Z,3.13
2018-04-14T00:10:42.179Z,3.00
2018-04-14T00:13:09.644Z,2.97
2018-04-14T00:15:37.239Z,3.07
2018-04-14T00:18:04.704Z,3.17
2018-04-14T00:20:32.171Z,2.97
2018-04-14T00:22:59.654Z,2.87
2018-04-14T00:25:27.132Z,3.07
2018-04-14T00:27:54.620Z,2.60
2018-04-14T00:30:22.079Z,2.97
2018-04-14T00:32:49.555Z,3.57
2018-04-14T00:35:17.014Z,2.93
2018-04-14T00:37:44.500Z,3.23
2018-04-14T00:40:11.984Z,2.57
2018-04-14T00:42:39.491Z,3.47
2018-04-14T00:45:06.950Z,3.13
2018-04-14T00:47:34.484Z,2.90
2018-04-14T00:50:01.938Z,2.90
2018-04-14T00:52:29.455Z,3.37
2018-04-14T00:54:56.937Z,3.03
2018-04-14T00:57:24.419Z,3.30
2018-04-14T00:59:51.880Z,3.20
2018-04-14T01:02:19.383Z,3.13
2018-04-14T01:04:47.791Z,3.23
2018-04-14T01:07:15.276Z,3.30
2018-04-14T01:09:42.756Z,3.60
2018-04-14T01:12:10.243Z,3.70
2018-04-14T01:14:37.743Z,2.90
2018-04-14T01:17:05.280Z,2.50
2018-04-14T01:19:32.707Z,2.70
2018-04-14T01:22:00.179Z,2.53
2018-04-14T01:24:27.668Z,2.67
2018-04-14T01:26:55.156Z,2.90
2018-04-14T01:29:22.643Z,2.70
2018-04-14T01:31:50.098Z,3.07
2018-04-14T01:34:17.619Z,3.03
2018-04-14T01:36:45.083Z,2.43
2018-04-14T01:39:13.540Z,3.10
2018-04-14T01:41:41.003Z,3.40
2018-04-14T01:44:08.488Z,2.80
2018-04-14T01:46:35.949Z,3.33
2018-04-14T01:49:03.436Z,3.03
2018-04-14T01:51:30.898Z,2.63
2018-04-14T01:53:58.383Z,2.60
2018-04-14T01:56:25.843Z,2.73
2018-04-14T01:58:53.328Z,3.30
2018-04-14T02:01:20.783Z,3.40
2018-04-14T02:03:48.331Z,3.67
2018-04-14T02:06:15.883Z,3.40
2018-04-14T02:08:43.465Z,3.23
2018-04-14T02:11:10.926Z,3.10
2018-04-14T02:13:38.421Z,3.40
2018-04-14T02:16:05.887Z,3.77
2018-04-14T02:18:33.382Z,3.17
2018-04-14T02:21:00.855Z,3.07
2018-04-14T02:23:28.428Z,4.27
2018-04-14T02:25:55.983Z,3.70
2018-04-14T02:28:23.522Z,3.83
2018-04-14T02:30:50.987Z,2.93
2018-04-14T02:33:18.487Z,3.37
2018-04-14T02:35:45.954Z,3.30
2018-04-14T02:38:13.432Z,3.30
2018-04-14T02:40:40.907Z,3.67
2018-04-14T02:43:08.371Z,2.87
2018-04-14T02:45:35.898Z,2.33
2018-04-14T02:48:03.368Z,2.50
2018-04-14T02:50:30.853Z,2.70
2018-04-14T02:52:58.319Z,2.67
2018-04-14T02:55:25.854Z,3.13
2018-04-14T02:57:53.315Z,2.67
2018-04-14T03:00:20.879Z,3.43
2018-04-14T03:02:48.341Z,2.83
2018-04-14T03:05:15.898Z,2.60
2018-04-14T03:07:43.368Z,2.70
2018-04-14T03:10:10.848Z,2.47
2018-04-14T03:12:38.310Z,2.93
2018-04-14T03:15:05.795Z,3.00
2018-04-14T03:17:33.261Z,3.30
2018-04-14T03:20:00.763Z,2.80
2018-04-14T03:22:28.232Z,3.63
2018-04-14T03:24:55.992Z,2.87
2018-04-14T03:27:23.528Z,3.23
2018-04-14T03:29:51.012Z,3.03
2018-04-14T03:32:18.556Z,3.70
2018-04-14T03:34:46.099Z,2.80
2018-04-14T03:37:13.555Z,2.97
2018-04-14T03:39:41.035Z,2.47
2018-04-14T03:42:08.503Z,2.90
2018-04-14T03:44:36.022Z,2.70
2018-04-14T03:47:03.483Z,2.90
2018-04-14T03:49:30.948Z,3.03
2018-04-14T03:51:58.440Z,2.63
2018-04-14T03:54:25.899Z,2.80
2018-04-14T03:56:53.407Z,3.13
2018-04-14T03:59:20.867Z,3.17
2018-04-14T04:01:48.356Z,2.70
2018-04-14T04:04:15.823Z,3.10
2018-04-14T04:06:43.303Z,3.40
2018-04-14T04:09:10.813Z,4.53
2018-04-14T04:11:38.471Z,3.80
2018-04-14T04:14:05.939Z,3.57
2018-04-14T04:16:33.429Z,3.40
2018-04-14T04:19:12.619Z,3.10
2018-04-14T04:21:51.993Z,3.20
2018-04-14T04:24:31.303Z,3.40
2018-04-14T04:26:58.788Z,3.30
2018-04-14T04:29:26.248Z,3.33
2018-04-14T04:31:53.740Z,3.73
2018-04-14T04:34:21.209Z,3.10
2018-04-14T04:36:48.703Z,3.10
2018-04-14T04:39:16.172Z,3.30
2018-04-14T04:41:43.694Z,3.50
2018-04-14T04:44:11.172Z,2.97
2018-04-14T04:46:38.740Z,3.30
2018-04-14T04:49:06.243Z,3.07
2018-04-14T04:51:33.758Z,3.37
2018-04-14T04:54:01.231Z,2.97
2018-04-14T04:56:28.727Z,3.40
2018-04-14T04:58:56.228Z,2.97
2018-04-14T05:01:23.778Z,3.30
2018-04-14T05:03:51.251Z,2.60
2018-04-14T05:06:18.780Z,2.40
2018-04-14T05:08:46.244Z,2.60
2018-04-14T05:11:13.736Z,2.63
2018-04-14T05:13:41.199Z,2.80
2018-04-14T05:16:08.690Z,2.60
2018-04-14T05:18:36.147Z,2.27
2018-04-14T05:21:03.623Z,3.17
2018-04-14T05:23:31.110Z,2.40
2018-04-14T05:25:58.571Z,2.47
2018-04-14T05:28:26.055Z,2.80
2018-04-14T05:30:53.548Z,2.07
2018-04-14T05:33:21.047Z,2.93
2018-04-14T05:35:48.547Z,2.70
2018-04-14T05:38:16.032Z,2.57
2018-04-14T05:40:43.495Z,2.63
2018-04-14T05:43:10.980Z,2.17
2018-04-14T05:45:38.434Z,2.07
2018-04-14T05:48:05.924Z,2.50
2018-04-14T05:50:33.427Z,3.00
2018-04-14T05:53:01.048Z,2.93
2018-04-14T05:55:28.519Z,3.33
2018-04-14T05:57:56.015Z,2.87
2018-04-14T06:00:23.491Z,3.47
2018-04-14T06:02:50.975Z,2.80
2018-04-14T06:05:18.495Z,2.43
2018-04-14T06:07:45.978Z,2.30
2018-04-14T06:10:13.444Z,2.60
2018-04-14T06:12:40.955Z,2.83
2018-04-14T06:15:08.516Z,2.40
2018-04-14T06:17:36.010Z,2.43
2018-04-14T06:20:03.478Z,3.20
2018-04-14T06:22:30.959Z,2.97
2018-04-14T06:24:58.447Z,2.73
2018-04-14T06:27:25.916Z,3.20
2018-04-14T06:29:53.422Z,2.50
2018-04-14T06:32:21.828Z,2.97
2018-04-14T06:34:49.331Z,2.60
2018-04-14T06:37:16.862Z,3.23
2018-04-14T06:39:44.424Z,2.63
2018-04-14T06:42:11.904Z,3.10
2018-04-14T06:44:39.423Z,2.83
2018-04-14T06:47:06.923Z,3.07
2018-04-14T06:49:34.455Z,3.43
2018-04-14T06:52:01.922Z,4.03
2018-04-14T06:54:29.428Z,4.60
2018-04-14T06:56:56.949Z,4.17
2018-04-14T06:59:24.451Z,3.60
2018-04-14T07:01:51.923Z,3.50
2018-04-14T07:04:19.490Z,3.93
2018-04-14T07:06:46.947Z,4.37
2018-04-14T07:09:14.448Z,5.13
2018-04-14T07:11:42.917Z,5.17
2018-04-14T07:14:10.500Z,4.70
2018-04-14T07:16:37.991Z,3.10
2018-04-14T07:19:05.510Z,3.17
2018-04-14T07:21:33.119Z,4.00
2018-04-14T07:24:00.606Z,2.77
2018-04-14T07:26:28.092Z,3.43
2018-04-14T07:28:55.591Z,3.33
2018-04-14T07:31:23.076Z,2.77
2018-04-14T07:33:50.638Z,3.13
2018-04-14T07:36:18.136Z,3.33
2018-04-14T07:38:45.619Z,3.40
2018-04-14T07:41:13.107Z,3.47
2018-04-14T07:43:40.579Z,2.80
2018-04-14T07:46:08.068Z,2.40
2018-04-14T07:48:35.588Z,2.73
2018-04-14T07:51:03.079Z,2.70
2018-04-14T07:53:30.563Z,3.00
2018-04-14T07:55:58.075Z,3.07
2018-04-14T07:58:25.547Z,2.30
2018-04-14T08:00:53.052Z,3.00
2018-04-14T08:03:20.531Z,3.30
2018-04-14T08:05:48.019Z,3.60
2018-04-14T08:08:15.492Z,3.70
2018-04-14T08:10:43.012Z,3.50
2018-04-14T08:13:10.587Z,3.90
2018-04-14T08:15:38.088Z,3.13
2018-04-14T08:18:05.562Z,3.80
2018-04-14T08:20:33.149Z,3.53
2018-04-14T08:23:00.663Z,4.10
2018-04-14T08:25:28.158Z,3.63
2018-04-14T08:27:55.623Z,2.97
2018-04-14T08:30:23.115Z,3.47
2018-04-14T08:32:50.587Z,2.90
2018-04-14T08:35:18.110Z,2.93
2018-04-14T08:37:45.596Z,2.90
2018-04-14T08:40:13.090Z,3.40
2018-04-14T08:42:40.575Z,2.40
2018-04-14T08:45:08.087Z,2.43
2018-04-14T08:47:35.572Z,2.23
2018-04-14T08:50:03.049Z,2.10
2018-04-14T08:52:30.563Z,2.17
2018-04-14T08:54:58.188Z,2.30
2018-04-14T08:57:25.728Z,2.20
2018-04-14T08:59:53.321Z,2.53
2018-04-14T09:02:20.820Z,2.40
2018-04-14T09:04:48.302Z,3.07
2018-04-14T09:07:15.795Z,1.80
2018-04-14T09:09:43.287Z,1.40
2018-04-14T09:12:10.847Z,1.80
2018-04-14T09:14:38.324Z,2.07
2018-04-14T09:17:05.811Z,2.03
2018-04-14T09:19:33.357Z,1.83
2018-04-14T09:22:00.847Z,1.80
2018-04-14T09:24:28.315Z,2.20
2018-04-14T09:26:55.998Z,2.00
2018-04-14T09:29:23.527Z,2.00
2018-04-14T09:31:51.046Z,1.90
2018-04-14T09:34:18.511Z,2.30
2018-04-14T09:36:46.004Z,2.13
2018-04-14T09:39:13.475Z,2.73
2018-04-14T09:41:40.971Z,1.90
2018-04-14T09:44:08.436Z,1.70
2018-04-14T09:46:35.932Z,2.00
2018-04-14T09:49:03.486Z,2.50
2018-04-14T09:51:30.987Z,8.05
2018-04-14T09:53:58.468Z,3.50
2018-04-14T09:56:25.994Z,2.05
2018-04-14T09:58:53.584Z,2.05
2018-04-14T10:01:26.768Z,2.30
2018-04-14T10:03:54.254Z,1.85
2018-04-14T10:06:21.726Z,1.70
2018-04-14T10:08:50.126Z,1.23
2018-04-14T10:11:17.663Z,1.80
2018-04-14T10:13:45.151Z,1.52
2018-04-14T10:16:12.675Z,1.70
2018-04-14T10:18:40.135Z,1.50
2018-04-14T10:21:07.613Z,1.70
2018-04-14T10:23:35.165Z,2.05
2018-04-14T10:26:02.635Z,1.87
2018-04-14T10:28:30.137Z,4.28
2018-04-14T10:30:58.628Z,3.90
2018-04-14T10:33:26.148Z,5.03
2018-04-14T10:35:53.652Z,3.55
2018-04-14T10:38:21.152Z,1.98
2018-04-14T10:40:48.620Z,1.75
2018-04-14T10:43:16.127Z,2.08
2018-04-14T10:45:43.599Z,1.48
2018-04-14T10:48:11.096Z,2.28
2018-04-14T10:50:38.624Z,2.47
2018-04-14T10:53:06.143Z,1.73
2018-04-14T10:55:33.614Z,2.10
2018-04-14T10:58:01.107Z,1.85
2018-04-14T11:00:28.583Z,2.50
2018-04-14T11:02:56.136Z,1.20
2018-04-14T11:05:23.634Z,2.50
2018-04-14T11:07:51.127Z,1.80
2018-04-14T11:10:18.595Z,2.17
2018-04-14T11:12:46.093Z,1.73
2018-04-14T11:15:13.598Z,1.52
2018-04-14T11:17:41.111Z,1.87
2018-04-14T11:20:08.591Z,2.28
2018-04-14T11:22:36.065Z,2.03
2018-04-14T11:25:03.555Z,1.62
2018-04-14T11:27:32.663Z,2.20
2018-04-14T11:30:00.183Z,1.80
2018-04-14T11:32:27.899Z,1.70
2018-04-14T11:34:55.395Z,1.80
2018-04-14T11:37:22.915Z,2.08
2018-04-14T11:39:50.471Z,3.08
2018-04-14T11:42:17.968Z,2.30
2018-04-14T11:44:45.467Z,2.10
2018-04-14T11:47:12.936Z,2.08
2018-04-14T11:49:40.462Z,2.33
2018-04-14T11:52:07.944Z,2.20
2018-04-14T11:54:35.430Z,2.10
2018-04-14T11:57:02.901Z,6.50
2018-04-14T11:59:30.394Z,2.37
2018-04-14T12:01:57.863Z,2.53
2018-04-14T12:04:25.358Z,2.28
2018-04-14T12:06:52.863Z,3.10
2018-04-14T12:11:49.575Z,2.00
2018-04-14T12:14:17.088Z,2.37
2018-04-14T12:16:44.574Z,2.10
2018-04-14T12:19:12.144Z,2.22
2018-04-14T12:21:39.739Z,1.60
2018-04-14T12:24:07.243Z,2.28
2018-04-14T12:26:35.153Z,2.20
2018-04-14T12:29:02.997Z,1.70
2018-04-14T12:31:30.509Z,2.28
2018-04-14T12:33:58.004Z,2.00
2018-04-14T12:36:26.441Z,1.70
2018-04-14T12:38:53.937Z,2.83
2018-04-14T12:41:21.432Z,2.70
2018-04-14T12:43:49.135Z,2.10
2018-04-14T12:46:16.636Z,2.33
2018-04-14T12:48:44.111Z,3.03
2018-04-14T12:51:11.631Z,7.15
2018-04-14T12:53:39.214Z,2.72
2018-04-14T12:56:06.705Z,2.28
2018-04-14T12:58:35.197Z,2.45
2018-04-14T13:01:02.719Z,1.77
2018-04-14T13:03:30.203Z,2.75
2018-04-14T13:05:57.705Z,2.37
2018-04-14T13:08:25.183Z,2.50
2018-04-14T13:10:52.805Z,1.83
2018-04-14T13:13:20.307Z,3.80
2018-04-14T13:15:47.866Z,1.75
2018-04-14T13:18:15.335Z,1.52
2018-04-14T13:20:42.851Z,3.37
2018-04-14T13:23:10.348Z,2.10
2018-04-14T13:25:39.707Z,1.83
2018-04-14T13:28:07.278Z,1.60
2018-04-14T13:30:34.786Z,4.70
2018-04-14T13:33:02.271Z,2.10
2018-04-14T13:35:29.815Z,1.90
2018-04-14T13:37:57.320Z,2.60
2018-04-14T13:40:24.811Z,5.00
2018-04-14T13:42:52.315Z,1.77
2018-04-14T13:45:19.809Z,2.30
2018-04-14T13:47:47.339Z,1.60
2018-04-14T13:50:14.818Z,3.83
2018-04-14T13:52:42.307Z,2.10
2018-04-14T13:55:09.781Z,2.83
2018-04-14T13:57:37.273Z,2.58
2018-04-14T14:00:04.766Z,4.57
2018-04-14T14:02:32.280Z,2.10
2018-04-14T14:04:59.819Z,2.55
2018-04-14T14:07:27.319Z,2.60
2018-04-14T14:09:54.824Z,2.60
2018-04-14T14:12:22.330Z,3.00
2018-04-14T14:14:49.820Z,2.30
2018-04-14T14:17:17.327Z,2.83
2018-04-14T14:19:44.807Z,2.72
2018-04-14T14:22:12.307Z,3.28
2018-04-14T14:24:39.789Z,2.35
2018-04-14T14:27:07.299Z,1.95
2018-04-14T14:29:34.794Z,2.15
2018-04-14T14:32:02.287Z,2.62
2018-04-14T14:34:29.764Z,2.45
2018-04-14T14:36:57.277Z,2.00
2018-04-14T14:39:24.747Z,2.00
2018-04-14T14:41:52.240Z,3.97
2018-04-14T14:44:19.728Z,1.90
2018-04-14T14:46:47.212Z,1.80
2018-04-14T14:49:14.712Z,2.20
2018-04-14T14:51:42.179Z,2.28
2018-04-14T14:54:09.675Z,3.60
2018-04-14T14:56:37.167Z,2.28
2018-04-14T14:59:04.710Z,1.60
2018-04-14T15:01:32.164Z,2.70
2018-04-14T15:03:59.832Z,2.85
2018-04-14T15:06:27.303Z,2.15
2018-04-14T15:08:54.800Z,2.53
2018-04-14T15:11:22.271Z,3.22
2018-04-14T15:13:49.762Z,1.92
2018-04-14T15:16:17.249Z,2.58
2018-04-14T15:18:44.777Z,2.58
2018-04-14T15:21:12.283Z,2.50
2018-04-14T15:23:39.783Z,2.10
2018-04-14T15:26:07.275Z,3.22
2018-04-14T15:28:34.803Z,4.10
2018-04-14T15:31:02.268Z,2.55
2018-04-14T15:33:29.759Z,2.53
2018-04-14T15:35:57.343Z,2.40
2018-04-14T15:38:24.904Z,3.70
2018-04-14T15:40:52.382Z,2.47
2018-04-14T15:43:19.917Z,2.92
2018-04-14T15:45:47.412Z,3.67
2018-04-14T15:48:14.969Z,3.37
2018-04-14T15:50:42.435Z,2.60
2018-04-14T15:53:09.944Z,2.72
2018-04-14T15:55:37.514Z,2.50
2018-04-14T15:58:05.017Z,2.30
2018-04-14T16:00:32.516Z,2.47
2018-04-14T16:02:59.992Z,2.62
2018-04-14T16:05:27.487Z,2.90
2018-04-14T16:07:55.043Z,3.62
2018-04-14T16:10:22.552Z,3.30
2018-04-14T16:12:50.126Z,2.35
2018-04-14T16:15:17.672Z,2.75
2018-04-14T16:17:45.146Z,3.37
2018-04-14T16:20:12.649Z,2.70
2018-04-14T16:22:40.115Z,2.58
2018-04-14T16:25:07.701Z,2.78
2018-04-14T16:27:35.198Z,3.28
2018-04-14T16:30:02.708Z,6.15
2018-04-14T16:32:30.174Z,2.58
2018-04-14T16:34:57.662Z,3.12
2018-04-14T16:37:25.170Z,2.97
2018-04-14T16:39:52.666Z,2.97
2018-04-14T16:42:20.158Z,2.75
2018-04-14T16:44:47.639Z,2.78
2018-04-14T16:47:15.319Z,1.77
2018-04-14T16:49:42.814Z,3.03
2018-04-14T16:52:10.312Z,2.50
2018-04-14T16:54:37.802Z,3.00
2018-04-14T16:57:05.305Z,2.90
2018-04-14T16:59:32.790Z,2.67
2018-04-14T17:02:00.383Z,2.40
2018-04-14T17:04:27.923Z,2.67
2018-04-14T17:06:55.410Z,2.53
2018-04-14T17:09:22.871Z,7.20
2018-04-14T17:11:50.391Z,2.53
2018-04-14T17:14:17.868Z,2.70
2018-04-14T17:16:45.379Z,2.70
2018-04-14T17:19:12.864Z,4.27
2018-04-14T17:21:40.374Z,1.90
2018-04-14T17:24:07.869Z,2.33
2018-04-14T17:26:35.367Z,3.20
2018-04-14T17:29:02.831Z,7.50
2018-04-14T17:31:30.344Z,3.30
2018-04-14T17:33:57.813Z,2.73
2018-04-14T17:36:25.300Z,2.73
2018-04-14T17:38:52.877Z,4.10
2018-04-14T17:41:20.406Z,3.30
2018-04-14T17:43:47.898Z,3.10
2018-04-14T17:46:15.381Z,2.30
2018-04-14T17:48:42.885Z,7.43
2018-04-14T17:51:10.384Z,2.60
2018-04-14T17:53:37.866Z,3.70
2018-04-14T17:56:05.358Z,2.90
2018-04-14T17:58:32.935Z,5.13
2018-04-14T18:01:00.447Z,4.80
2018-04-14T18:03:27.965Z,3.47
2018-04-14T18:05:55.482Z,3.33
2018-04-14T18:08:22.973Z,3.83
2018-04-14T18:10:50.440Z,2.57
2018-04-14T18:13:18.283Z,3.40
2018-04-14T18:15:45.824Z,3.43
2018-04-14T18:18:13.331Z,8.43
2018-04-14T18:20:40.869Z,2.60
2018-04-14T18:23:08.415Z,2.63
2018-04-14T18:25:35.895Z,2.93
2018-04-14T18:28:03.461Z,3.87
2018-04-14T18:30:30.956Z,2.80
2018-04-14T18:32:58.452Z,2.47
2018-04-14T18:35:25.932Z,2.87
2018-04-14T18:37:53.576Z,7.13
2018-04-14T18:40:21.023Z,2.90
2018-04-14T18:42:48.536Z,2.17
2018-04-14T18:45:16.000Z,2.20
2018-04-14T18:47:43.531Z,2.20
2018-04-14T18:50:11.063Z,4.10
2018-04-14T18:52:38.511Z,2.33
2018-04-14T18:55:05.983Z,2.27
2018-04-14T18:57:33.551Z,3.10
2018-04-14T19:00:01.021Z,3.13
2018-04-14T19:02:28.761Z,2.43
2018-04-14T19:04:56.332Z,2.20
2018-04-14T19:07:23.890Z,2.83
2018-04-14T19:09:51.468Z,6.67
2018-04-14T19:12:19.067Z,3.77
2018-04-14T19:14:46.547Z,2.00
2018-04-14T19:17:14.088Z,2.60
2018-04-14T19:19:41.567Z,5.30
2018-04-14T19:22:09.035Z,5.23
2018-04-14T19:24:36.620Z,4.10
2018-04-14T19:27:04.062Z,4.27
2018-04-14T19:29:31.640Z,5.87
2018-04-14T19:31:59.151Z,4.20
2018-04-14T19:34:26.638Z,4.70
2018-04-14T19:36:54.103Z,3.70
2018-04-14T19:39:21.636Z,6.47
2018-04-14T19:41:49.107Z,2.70
2018-04-14T19:44:16.596Z,3.50
2018-04-14T19:46:44.082Z,3.67
2018-04-14T19:49:11.586Z,3.27
2018-04-14T19:51:39.048Z,3.00
2018-04-14T19:54:06.575Z,3.10
2018-04-14T19:56:34.055Z,4.50
2018-04-14T19:59:01.556Z,4.73
2018-04-14T20:01:29.043Z,4.90
2018-04-14T20:03:56.540Z,4.53
2018-04-14T20:06:24.016Z,5.70
2018-04-14T20:08:51.515Z,4.20
2018-04-14T20:11:18.988Z,4.37
2018-04-14T20:13:46.494Z,4.07
2018-04-14T20:16:14.019Z,5.13
2018-04-14T20:18:41.521Z,4.33
2018-04-14T20:21:09.012Z,4.33
2018-04-14T20:23:36.523Z,4.63
2018-04-14T20:26:04.026Z,5.07
2018-04-14T20:28:31.781Z,5.67
2018-04-14T20:30:59.250Z,4.10
2018-04-14T20:33:26.712Z,5.47
2018-04-14T20:35:54.237Z,5.37
2018-04-14T20:38:21.715Z,5.63
2018-04-14T20:40:49.235Z,4.70
2018-04-14T20:43:16.699Z,6.07
2018-04-14T20:45:44.359Z,7.03
2018-04-14T20:48:11.832Z,7.17
2018-04-14T20:50:39.459Z,6.70
2018-04-14T20:53:06.936Z,6.37
2018-04-14T20:55:34.424Z,6.10
2018-04-14T20:58:01.907Z,5.47
2018-04-14T21:00:29.431Z,6.03
2018-04-14T21:02:56.916Z,6.80
2018-04-14T21:05:24.412Z,7.17
2018-04-14T21:07:51.959Z,6.13
2018-04-14T21:10:19.475Z,6.77
2018-04-14T21:12:46.943Z,6.63
2018-04-14T21:15:14.536Z,6.17
2018-04-14T21:17:42.006Z,8.33
2018-04-14T21:20:09.581Z,9.00
2018-04-14T21:22:37.060Z,16.33
2018-04-14T21:25:04.567Z,21.07
2018-04-14T21:27:32.037Z,8.10
2018-04-14T21:29:59.583Z,5.60
2018-04-14T21:32:27.127Z,6.00
2018-04-14T21:34:54.655Z,5.07
2018-04-14T21:37:22.143Z,4.90
2018-04-14T21:39:49.647Z,5.37
2018-04-14T21:42:17.116Z,5.50
2018-04-14T21:44:44.624Z,4.57
2018-04-14T21:47:12.104Z,4.40
2018-04-14T21:49:39.657Z,4.63
2018-04-14T21:52:07.159Z,3.67
2018-04-14T21:54:34.644Z,3.30
2018-04-14T21:57:02.140Z,2.97
2018-04-14T21:59:29.637Z,4.07
2018-04-14T22:01:57.155Z,2.87
2018-04-14T22:04:24.634Z,3.23
2018-04-14T22:06:52.123Z,2.80
2018-04-14T22:09:19.697Z,4.37
2018-04-14T22:11:47.187Z,3.00
2018-04-14T22:14:26.506Z,3.40
2018-04-14T22:16:54.023Z,2.57
2018-04-14T22:19:21.527Z,3.50
2018-04-14T22:21:49.036Z,2.90
2018-04-14T22:24:16.515Z,2.90
2018-04-14T22:26:44.059Z,2.30
2018-04-14T22:29:11.524Z,2.23
2018-04-14T22:31:39.016Z,2.50
2018-04-14T22:34:06.488Z,2.00
2018-04-14T22:36:33.978Z,1.90
2018-04-14T22:39:01.663Z,2.07
2018-04-14T22:41:29.160Z,2.50
2018-04-14T22:43:56.646Z,2.30
2018-04-14T22:46:24.148Z,2.50
2018-04-14T22:48:51.611Z,2.40
2018-04-14T22:51:19.110Z,2.20
2018-04-14T22:53:46.574Z,2.70
2018-04-14T22:56:14.070Z,2.10
2018-04-14T22:58:41.578Z,2.37
2018-04-14T23:01:09.076Z,2.13
2018-04-14T23:03:36.551Z,2.50
2018-04-14T23:06:04.092Z,2.57
2018-04-14T23:08:31.655Z,2.13
2018-04-14T23:10:59.216Z,2.30
2018-04-14T23:13:26.718Z,2.40
2018-04-14T23:15:54.207Z,2.13
2018-04-14T23:18:21.704Z,2.17
2018-04-14T23:20:50.144Z,2.37
2018-04-14T23:23:17.635Z,2.50
2018-04-14T23:25:45.215Z,2.43
2018-04-14T23:28:12.700Z,2.17
2018-04-14T23:30:40.191Z,2.00
2018-04-14T23:33:07.686Z,1.93
2018-04-14T23:35:35.157Z,2.00
2018-04-14T23:38:02.659Z,1.83
2018-04-14T23:40:30.131Z,1.80
2018-04-14T23:42:57.644Z,1.97
2018-04-14T23:45:25.123Z,2.27
2018-04-14T23:47:52.631Z,1.83
2018-04-14T23:50:20.099Z,2.53
2018-04-14T23:52:47.583Z,1.93
2018-04-14T23:55:15.051Z,2.10
2018-04-14T23:57:42.535Z,2.00
